Terminal Aerodrome Forecast
Issued by NWS

Home | Current Version | Previous Version | Text Only | Print | Product List | Glossary On
Versions: 1 2 3 4 5 6 7 8 9 10 11 12 13 14 15 16 17 18
000
FTUS45 KRIW 191136
TAFJAC
TAF
KJAC 191136Z 1912/2012 01009KT 6SM -SN SCT009 OVC024
      TEMPO 1912/1915 2SM -SN BKN009
     FM191900 36008KT P6SM VCSH SCT030 BKN050
     FM200300 VRB05KT P6SM FEW010 BKN060
      AMD LTD TO CLD VIS AND WIND=

USA.gov is the U.S. government's official web portal to all federal, state and local government web resources and services.